Time;durP1;ratioP1;P1;durP2;ratioP2;P2;SDS_P1;SDS_P2;PMS_P1;PMS_P2;Temp;Humidity;BMP_temperature;BMP_pressure;BME280_temperature;BME280_humidity;BME280_pressure;Samples;Min_cycle;Max_cycle;Signal;HPM_P1;HPM_P2
2023/06/28 04:22:34;;;;;;;5.78;2.80;;;;;;;17.03;97.38;100441.25;5089565;28;20332;-65
2023/06/28 04:24:59;;;;;;;4.50;2.80;;;;;;;17.05;98.96;100436.47;5089609;28;20385;-65
2023/06/28 04:27:25;;;;;;;3.97;2.38;;;;;;;17.08;98.72;100436.06;5089344;28;20036;-65
2023/06/28 04:29:51;;;;;;;3.83;2.35;;;;;;;17.14;98.45;100436.25;5087631;28;20484;-65
2023/06/28 04:32:24;;;;;;;4.88;2.63;;;;;;;17.19;98.66;100436.44;5089419;28;20032;-65
2023/06/28 04:34:52;;;;;;;6.97;2.90;;;;;;;17.22;99.63;100438.72;5089407;28;20111;-65
2023/06/28 04:37:19;;;;;;;4.57;2.70;;;;;;;17.27;99.12;100441.59;5089248;28;20032;-65
2023/06/28 04:39:44;;;;;;;3.60;2.47;;;;;;;17.28;100.00;100436.00;5088917;28;20477;-64
2023/06/28 04:42:10;;;;;;;3.00;2.08;;;;;;;17.32;99.79;100439.09;5089160;28;20055;-64
2023/06/28 04:44:36;;;;;;;3.40;2.28;;;;;;;17.39;98.48;100437.19;5089069;28;20140;-64
2023/06/28 04:47:03;;;;;;;5.65;2.97;;;;;;;17.49;97.90;100450.22;5089033;28;20044;-64
2023/06/28 04:49:28;;;;;;;5.90;2.53;;;;;;;17.54;97.25;100442.31;5088835;28;20122;-64
2023/06/28 04:51:54;;;;;;;4.90;3.05;;;;;;;17.48;97.15;100446.69;5087823;28;20036;-64
2023/06/28 04:54:19;;;;;;;4.00;2.75;;;;;;;17.52;96.14;100433.63;5088896;28;20478;-64
2023/06/28 04:56:46;;;;;;;5.60;3.35;;;;;;;17.57;96.81;100431.94;5088868;28;20052;-65
2023/06/28 04:59:11;;;;;;;4.20;2.83;;;;;;;17.59;98.29;100435.25;5088665;28;20040;-64
2023/06/28 05:01:37;;;;;;;4.55;2.67;;;;;;;17.63;96.27;100441.84;5088786;28;20659;-64
2023/06/28 05:04:03;;;;;;;6.22;2.90;;;;;;;17.68;95.50;100438.53;5088764;28;20489;-64
2023/06/28 05:06:29;;;;;;;6.13;3.42;;;;;;;17.72;93.75;100444.31;5088777;28;20041;-64
2023/06/28 05:08:55;;;;;;;5.22;3.15;;;;;;;17.79;93.92;100445.94;5088367;28;20051;-64
2023/06/28 05:11:20;;;;;;;6.13;2.78;;;;;;;17.84;96.71;100448.00;5088710;28;20119;-64
2023/06/28 05:13:45;;;;;;;3.47;2.45;;;;;;;17.84;97.76;100445.31;5087299;28;20036;-64
2023/06/28 05:16:11;;;;;;;4.38;2.83;;;;;;;17.87;96.21;100447.59;5088453;28;20126;-64
2023/06/28 05:18:36;;;;;;;4.80;2.95;;;;;;;17.90;95.86;100447.13;5088197;28;20042;-64
2023/06/28 05:21:02;;;;;;;6.88;2.45;;;;;;;17.96;94.21;100445.44;5088230;28;20040;-64
2023/06/28 05:23:27;;;;;;;4.97;2.72;;;;;;;18.00;92.67;100455.59;5088408;28;20044;-64
2023/06/28 05:25:52;;;;;;;6.95;2.60;;;;;;;18.05;92.56;100463.00;5088280;28;20497;-64
2023/06/28 05:28:18;;;;;;;5.72;2.80;;;;;;;18.09;93.13;100448.06;5088295;28;20088;-64
2023/06/28 05:30:43;;;;;;;5.75;2.55;;;;;;;18.11;92.76;100449.47;5088230;28;20044;-64
2023/06/28 05:33:10;;;;;;;4.00;2.17;;;;;;;18.16;92.35;100462.31;5079063;28;20060;-64
2023/06/28 05:35:36;;;;;;;5.65;2.65;;;;;;;18.17;91.14;100456.69;5074781;28;20036;-64
2023/06/28 05:38:03;;;;;;;6.78;2.80;;;;;;;18.25;90.78;100454.78;5074552;28;20071;-64
2023/06/28 05:40:29;;;;;;;4.43;2.75;;;;;;;18.28;89.68;100454.38;5074293;28;20040;-64
2023/06/28 05:42:57;;;;;;;3.60;2.20;;;;;;;18.28;86.27;100448.97;5074498;28;20036;-64
2023/06/28 05:45:23;;;;;;;;;;;;;;;18.32;87.00;100455.56;5074907;28;20037;-64
2023/06/28 05:47:49;;;;;;;7.07;2.60;;;;;;;18.28;86.85;100432.78;5074476;28;19919;-64
2023/06/28 05:50:16;;;;;;;5.50;2.33;;;;;;;18.37;85.46;100447.63;5074083;28;20040;-64
2023/06/28 05:52:43;;;;;;;7.72;3.10;;;;;;;18.40;84.36;100444.53;5074340;28;20478;-64
2023/06/28 05:55:08;;;;;;;3.95;2.65;;;;;;;18.44;84.53;100445.72;5074194;28;20036;-64
2023/06/28 05:57:35;;;;;;;4.70;2.42;;;;;;;18.48;84.81;100452.34;5073992;28;20032;-64
2023/06/28 06:00:04;;;;;;;4.32;2.58;;;;;;;18.54;84.37;100448.75;5073868;28;20052;-64
2023/06/28 06:02:30;;;;;;;6.95;3.35;;;;;;;18.55;82.99;100450.41;5073985;28;20052;-64
2023/06/28 06:04:57;;;;;;;5.35;2.40;;;;;;;18.59;81.94;100450.81;5074293;28;20036;-64
2023/06/28 06:07:22;;;;;;;5.03;2.57;;;;;;;18.61;79.60;100452.22;5074272;28;20109;-64
2023/06/28 06:09:48;;;;;;;4.68;2.33;;;;;;;18.65;79.70;100453.44;5073822;28;20454;-64
2023/06/28 06:12:13;;;;;;;3.88;2.30;;;;;;;18.63;78.19;100442.03;5073063;28;20024;-65
2023/06/28 06:14:38;;;;;;;3.33;2.30;;;;;;;18.68;76.00;100455.72;5074236;28;20051;-65
2023/06/28 06:17:04;;;;;;;4.72;2.40;;;;;;;18.75;76.24;100454.84;5073823;28;20040;-65
2023/06/28 06:19:29;;;;;;;3.47;2.25;;;;;;;18.82;75.92;100453.72;5073759;28;20127;-65
2023/06/28 06:21:55;;;;;;;2.80;2.28;;;;;;;18.83;74.91;100447.25;5073758;28;20036;-58
2023/06/28 06:24:20;;;;;;;5.35;2.70;;;;;;;18.93;74.12;100462.97;5073751;28;20040;-55
2023/06/28 06:26:46;;;;;;;5.72;3.10;;;;;;;18.94;73.54;100459.22;5073693;28;20441;-55
2023/06/28 06:29:11;;;;;;;5.05;2.55;;;;;;;18.97;71.96;100467.72;5073525;28;20036;-52
2023/06/28 06:31:36;;;;;;;5.00;2.60;;;;;;;19.02;70.59;100469.72;5073665;28;20392;-52
2023/06/28 06:34:02;;;;;;;4.00;2.20;;;;;;;19.00;69.98;100466.41;5072272;28;20040;-53
2023/06/28 06:36:28;;;;;;;3.75;2.33;;;;;;;19.02;69.52;100467.00;5073483;28;20115;-54
2023/06/28 06:38:54;;;;;;;3.90;2.67;;;;;;;19.10;70.28;100468.59;5073174;28;20538;-55
2023/06/28 06:41:21;;;;;;;4.97;2.50;;;;;;;19.13;68.88;100473.56;5073326;28;20067;-52
2023/06/28 06:43:46;;;;;;;6.90;2.90;;;;;;;19.11;70.41;100478.38;5071719;28;20043;-54
2023/06/28 06:46:12;;;;;;;4.28;3.03;;;;;;;19.10;70.70;100474.00;5071108;28;20037;-56
2023/06/28 06:48:37;;;;;;;7.38;3.58;;;;;;;19.16;70.84;100473.91;5072948;28;20058;-52
2023/06/28 06:51:05;;;;;;;3.78;2.53;;;;;;;19.19;70.30;100478.88;5073108;28;20044;-52
2023/06/28 06:53:30;;;;;;;4.97;2.72;;;;;;;19.20;68.35;100485.94;5072904;28;20036;-57
2023/06/28 06:55:55;;;;;;;7.00;3.45;;;;;;;19.23;68.04;100482.81;5072616;28;20505;-52
2023/06/28 06:58:21;;;;;;;5.60;2.80;;;;;;;19.30;68.33;100485.44;5064802;28;20037;-55
2023/06/28 07:00:46;;;;;;;7.75;2.83;;;;;;;19.39;67.59;100477.84;5053077;28;20033;-63
2023/06/28 07:03:12;;;;;;;7.65;2.90;;;;;;;19.43;65.94;100476.31;5051739;28;20087;-64
2023/06/28 07:05:38;;;;;;;4.57;2.70;;;;;;;19.46;65.40;100486.69;5052878;28;20048;-64
2023/06/28 07:08:03;;;;;;;4.35;3.08;;;;;;;19.44;65.28;100495.03;5052876;28;20123;-63
2023/06/28 07:10:29;;;;;;;9.60;3.40;;;;;;;19.52;66.17;100491.19;5052461;28;20029;-63
2023/06/28 07:12:54;;;;;;;3.40;2.60;;;;;;;19.50;65.42;100491.44;5052824;28;20141;-64
2023/06/28 07:15:19;;;;;;;3.78;2.65;;;;;;;19.67;66.62;100485.44;5052700;28;20044;-64
2023/06/28 07:17:45;;;;;;;4.22;2.55;;;;;;;19.71;66.86;100484.75;5052770;28;20036;-63
2023/06/28 07:20:10;;;;;;;5.95;2.95;;;;;;;19.78;65.55;100490.91;5052231;28;20448;-64
2023/06/28 07:22:36;;;;;;;8.10;4.43;;;;;;;19.88;65.19;100482.22;5052630;28;20060;-64
2023/06/28 07:25:04;;;;;;;5.70;3.25;;;;;;;19.96;64.45;100471.13;5052518;28;20517;-64
2023/06/28 07:27:30;;;;;;;7.95;3.22;;;;;;;20.10;63.55;100485.28;5052625;28;20047;-64
2023/06/28 07:29:56;;;;;;;6.13;3.17;;;;;;;20.18;61.06;100484.13;5052242;28;20123;-64
2023/06/28 07:32:21;;;;;;;4.03;2.97;;;;;;;20.20;60.22;100493.63;5052348;28;20120;-64
2023/06/28 07:34:47;;;;;;;5.65;2.65;;;;;;;20.37;60.25;100490.28;5052449;28;20033;-63
2023/06/28 07:37:12;;;;;;;6.63;2.70;;;;;;;20.47;59.01;100490.56;5052265;28;20098;-64
2023/06/28 07:39:38;;;;;;;4.45;2.60;;;;;;;20.53;57.54;100492.34;5051998;28;20115;-64
2023/06/28 07:42:03;;;;;;;5.80;2.35;;;;;;;20.69;56.77;100498.97;5052484;28;20436;-63
2023/06/28 07:44:29;;;;;;;5.68;3.00;;;;;;;20.63;56.60;100483.66;5052288;28;20045;-64
2023/06/28 07:46:54;;;;;;;7.22;3.00;;;;;;;20.71;57.47;100486.03;5052177;28;20065;-63
2023/06/28 07:49:20;;;;;;;8.15;2.97;;;;;;;20.81;57.62;100486.28;5051784;28;20037;-63
2023/06/28 07:51:45;;;;;;;4.82;2.67;;;;;;;20.92;57.83;100490.84;5052014;28;20043;-64
2023/06/28 07:54:10;;;;;;;4.28;2.30;;;;;;;20.94;56.18;100482.50;5052025;28;20569;-63
2023/06/28 07:56:36;;;;;;;4.68;2.85;;;;;;;21.13;55.77;100484.84;5051821;28;20056;-64
2023/06/28 07:59:03;;;;;;;4.22;2.97;;;;;;;21.19;54.13;100474.97;5051833;28;20044;-64
2023/06/28 08:01:28;;;;;;;2.83;2.38;;;;;;;21.35;54.67;100466.13;5052204;28;20037;-64
2023/06/28 08:03:54;;;;;;;8.65;4.95;;;;;;;21.47;55.50;100468.00;5052033;28;20044;-63
2023/06/28 08:06:19;;;;;;;4.78;2.17;;;;;;;21.40;53.37;100465.41;5051935;28;20033;-64
2023/06/28 08:08:47;;;;;;;3.72;2.47;;;;;;;21.33;53.92;100464.72;5051651;28;20040;-64
2023/06/28 08:11:12;;;;;;;5.72;2.50;;;;;;;21.37;51.51;100469.41;5051923;28;20037;-64
2023/06/28 08:13:38;;;;;;;5.35;2.45;;;;;;;21.31;52.33;100481.19;5051865;28;20064;-64
2023/06/28 08:16:04;;;;;;;4.47;3.05;;;;;;;21.21;52.31;100475.53;5051787;28;20045;-64
2023/06/28 08:18:29;;;;;;;5.78;2.58;;;;;;;21.27;51.75;100479.19;5051626;28;20041;-64
2023/06/28 08:20:55;;;;;;;4.63;2.55;;;;;;;21.27;51.99;100469.19;5051884;28;20072;-64
2023/06/28 08:23:21;;;;;;;4.72;2.55;;;;;;;21.28;51.42;100473.56;5050343;28;20053;-63
2023/06/28 08:25:46;;;;;;;3.28;2.20;;;;;;;21.06;50.70;100467.06;5051794;28;20123;-64
2023/06/28 08:28:12;;;;;;;5.35;2.63;;;;;;;21.33;52.27;100468.25;5051866;28;20139;-64
2023/06/28 08:30:37;;;;;;;5.63;2.38;;;;;;;21.43;53.38;100459.50;5051606;28;20342;-64
2023/06/28 08:33:03;;;;;;;3.92;2.80;;;;;;;21.78;55.72;100470.25;5051762;28;20052;-64
2023/06/28 08:35:28;;;;;;;4.85;2.70;;;;;;;21.90;55.09;100465.59;5051678;28;20087;-64
2023/06/28 08:37:54;;;;;;;3.83;2.50;;;;;;;22.06;55.32;100455.84;5050462;28;20037;-64
2023/06/28 08:40:19;;;;;;;5.10;2.50;;;;;;;22.10;50.77;100469.75;5051290;28;20394;-63
2023/06/28 08:42:46;;;;;;;5.30;2.50;;;;;;;22.46;50.58;100463.09;5051635;28;20036;-64
2023/06/28 08:45:14;;;;;;;7.68;2.92;;;;;;;22.60;47.73;100458.97;5051645;28;20033;-63
2023/06/28 08:47:41;;;;;;;4.68;2.47;;;;;;;22.72;47.81;100456.16;5051566;28;20509;-65
2023/06/28 08:50:09;;;;;;;7.57;2.60;;;;;;;22.66;48.29;100465.31;5051182;28;20486;-64
2023/06/28 08:52:35;;;;;;;;;;;;;;;22.87;49.56;100456.41;5051803;28;20127;-64
2023/06/28 08:55:00;;;;;;;3.17;2.33;;;;;;;22.89;47.89;100448.03;5051594;28;19943;-64
2023/06/28 08:57:27;;;;;;;4.22;2.60;;;;;;;23.07;47.95;100452.34;5051429;28;20041;-64
2023/06/28 08:59:53;;;;;;;5.80;2.55;;;;;;;23.18;47.47;100451.41;5051272;28;20033;-64
2023/06/28 09:02:20;;;;;;;6.65;2.40;;;;;;;23.39;46.72;100450.59;5051470;28;20107;-64
2023/06/28 09:04:48;;;;;;;9.18;2.53;;;;;;;23.49;46.40;100442.59;5051437;28;20055;-64
2023/06/28 09:07:15;;;;;;;5.65;2.47;;;;;;;23.66;45.98;100455.28;5051643;28;20040;-64
2023/06/28 09:09:43;;;;;;;4.88;2.47;;;;;;;23.84;44.20;100449.53;5055162;28;20033;-64
2023/06/28 09:12:09;;;;;;;3.75;2.03;;;;;;;24.23;45.00;100447.47;5055038;28;20040;-64
2023/06/28 09:14:35;;;;;;;3.27;2.03;;;;;;;24.40;42.84;100443.84;5055111;28;20195;-64
2023/06/28 09:17:00;;;;;;;4.43;2.00;;;;;;;24.25;44.34;100445.28;5054958;28;20301;-64
2023/06/28 09:19:26;;;;;;;5.20;1.75;;;;;;;24.20;41.31;100436.28;5054721;28;20033;-64
2023/06/28 09:21:51;;;;;;;3.50;1.85;;;;;;;24.23;40.74;100438.47;5055176;28;20043;-64
2023/06/28 09:24:16;;;;;;;6.72;2.15;;;;;;;24.22;39.66;100428.69;5054965;28;20041;-64
2023/06/28 09:26:43;;;;;;;4.10;2.05;;;;;;;24.58;40.55;100435.25;5054783;28;20037;-64
2023/06/28 09:29:12;;;;;;;5.78;2.17;;;;;;;24.39;41.91;100432.13;5054667;28;20037;-62
2023/06/28 09:31:45;;;;;;;3.55;1.83;;;;;;;24.50;40.93;100430.28;5054472;28;20069;-64
2023/06/28 09:34:10;;;;;;;4.40;1.85;;;;;;;24.44;40.01;100434.88;5054633;28;20119;-64
2023/06/28 09:36:37;;;;;;;4.93;2.25;;;;;;;24.48;41.92;100433.28;5054601;28;20151;-63
2023/06/28 09:39:04;;;;;;;5.07;2.17;;;;;;;24.68;40.15;100437.22;5054292;28;20127;-63
2023/06/28 09:41:42;;;;;;;3.63;1.85;;;;;;;24.94;40.72;100436.31;5054577;28;20090;-63
2023/06/28 09:44:11;;;;;;;4.22;1.95;;;;;;;25.46;42.86;100430.03;5054520;28;20049;-63
2023/06/28 09:46:44;;;;;;;3.53;1.77;;;;;;;25.44;39.73;100424.88;5054207;28;20119;-63
2023/06/28 09:49:25;;;;;;;5.15;2.17;;;;;;;25.57;40.37;100425.47;5054216;28;20045;-63
2023/06/28 09:52:01;;;;;;;3.53;1.70;;;;;;;25.86;38.36;100428.53;5054307;28;20033;-63
2023/06/28 09:54:44;;;;;;;4.63;2.17;;;;;;;25.97;38.02;100422.84;5054318;28;20029;-62
2023/06/28 09:57:10;;;;;;;3.25;2.10;;;;;;;26.23;37.73;100414.69;5054745;28;20072;-64
2023/06/28 09:59:36;;;;;;;5.97;2.13;;;;;;;26.53;38.13;100408.38;5053900;28;20080;-64
2023/06/28 10:02:07;;;;;;;3.92;2.03;;;;;;;26.57;38.20;100411.41;5054249;28;20037;-64
2023/06/28 10:04:37;;;;;;;3.55;2.05;;;;;;;26.82;36.92;100405.09;5054492;28;20041;-63
2023/06/28 10:07:04;;;;;;;6.55;2.60;;;;;;;26.65;36.60;100402.66;5054042;28;20036;-62
2023/06/28 10:09:40;;;;;;;4.15;2.05;;;;;;;26.53;37.37;100400.19;5053721;28;20111;-62
2023/06/28 10:12:15;;;;;;;3.53;2.10;;;;;;;26.48;37.78;100411.16;5053937;28;20131;-65
2023/06/28 10:14:48;;;;;;;5.25;2.15;;;;;;;26.45;38.16;100403.50;5053985;28;20033;-62
2023/06/28 10:17:14;;;;;;;2.55;1.90;;;;;;;26.22;37.17;100402.94;5053927;28;20547;-63
2023/06/28 10:19:40;;;;;;;4.97;2.42;;;;;;;26.31;37.22;100407.84;5053599;28;20032;-64
2023/06/28 10:22:06;;;;;;;4.50;2.10;;;;;;;26.68;37.71;100405.66;5052752;28;20044;-63
2023/06/28 10:24:37;;;;;;;4.10;1.85;;;;;;;26.72;34.72;100409.47;5054012;28;20452;-63
2023/06/28 10:27:04;;;;;;;4.43;1.98;;;;;;;27.05;35.66;100415.41;5053638;28;20106;-63
2023/06/28 10:29:30;;;;;;;4.43;2.17;;;;;;;27.65;35.51;100407.22;5053550;28;20024;-62
2023/06/28 10:31:56;;;;;;;3.35;2.30;;;;;;;27.90;36.66;100403.53;5053516;28;20047;-62
2023/06/28 10:34:22;;;;;;;5.03;2.10;;;;;;;28.42;35.23;100424.75;5052907;28;20090;-63
2023/06/28 10:36:48;;;;;;;4.90;2.25;;;;;;;27.78;35.00;100409.38;5053507;28;20029;-63
2023/06/28 10:39:15;;;;;;;8.32;4.05;;;;;;;28.64;35.40;100419.66;5053364;28;20068;-63
2023/06/28 10:41:41;;;;;;;4.32;2.10;;;;;;;28.44;34.61;100419.03;5053509;28;20056;-63
2023/06/28 10:44:07;;;;;;;4.82;2.30;;;;;;;29.22;34.36;100416.03;5053456;28;20508;-63
2023/06/28 10:46:33;;;;;;;5.43;2.40;;;;;;;28.97;34.76;100414.41;5053426;28;20406;-64
2023/06/28 10:49:03;;;;;;;7.28;2.40;;;;;;;28.59;33.80;100407.91;5053150;28;20041;-63
2023/06/28 10:51:34;;;;;;;4.47;2.40;;;;;;;28.30;33.41;100405.13;5053239;28;20037;-64
2023/06/28 10:54:08;;;;;;;3.25;2.28;;;;;;;28.41;34.14;100405.88;5053383;28;20032;-64
2023/06/28 10:56:37;;;;;;;3.40;2.03;;;;;;;28.14;35.56;100407.19;5053263;28;20115;-64
2023/06/28 10:59:06;;;;;;;2.38;1.88;;;;;;;28.08;34.44;100397.38;5052884;28;20028;-64
2023/06/28 11:01:52;;;;;;;3.30;2.30;;;;;;;28.13;34.76;100398.16;5053105;28;20037;-65
2023/06/28 11:04:18;;;;;;;3.78;2.00;;;;;;;28.09;34.60;100396.25;5053214;28;20143;-64
2023/06/28 11:06:47;;;;;;;4.05;2.60;;;;;;;28.49;34.67;100394.31;5052981;28;20128;-63
2023/06/28 11:09:19;;;;;;;2.90;1.95;;;;;;;28.13;34.09;100387.19;5052672;28;20131;-63
2023/06/28 11:11:56;;;;;;;4.25;2.28;;;;;;;28.57;34.54;100390.94;5052808;28;20037;-63
2023/06/28 11:14:25;;;;;;;5.05;2.50;;;;;;;28.79;32.75;100387.69;5052822;28;20040;-64
2023/06/28 11:16:58;;;;;;;5.63;2.10;;;;;;;28.73;33.98;100394.34;5052686;28;20131;-64
2023/06/28 11:19:26;;;;;;;6.35;2.28;;;;;;;29.11;33.09;100400.78;5052491;28;20045;-64
2023/06/28 11:21:59;;;;;;;6.10;2.20;;;;;;;28.86;32.87;100399.94;5052699;28;20033;-64
2023/06/28 11:24:41;;;;;;;3.38;2.40;;;;;;;28.86;32.54;100397.19;5052610;28;20045;-63
2023/06/28 11:27:16;;;;;;;1.92;1.55;;;;;;;29.10;32.67;100402.72;5052652;28;20434;-64
2023/06/28 11:29:52;;;;;;;4.40;2.10;;;;;;;29.21;32.40;100403.41;5052070;28;20048;-64
2023/06/28 11:32:23;;;;;;;3.25;1.90;;;;;;;29.11;31.92;100392.56;5052448;28;20041;-64
2023/06/28 11:34:49;;;;;;;4.32;1.80;;;;;;;28.26;32.78;100398.59;5052502;28;20101;-63
2023/06/28 11:37:14;;;;;;;2.90;2.03;;;;;;;28.59;33.43;100396.94;5052366;28;20045;-64
2023/06/28 11:39:40;;;;;;;2.25;1.75;;;;;;;28.46;33.75;100401.19;5050872;28;20045;-64
2023/06/28 11:42:13;;;;;;;2.55;1.75;;;;;;;28.25;32.78;100392.31;5052383;28;20033;-63
2023/06/28 11:44:50;;;;;;;3.30;2.00;;;;;;;28.11;34.02;100388.59;5052364;28;20036;-64
2023/06/28 11:47:23;;;;;;;5.53;2.22;;;;;;;27.82;36.20;100388.53;5052218;28;20444;-63
2023/06/28 11:49:49;;;;;;;3.90;1.80;;;;;;;27.75;36.12;100380.63;5051979;28;20496;-64
2023/06/28 11:52:21;;;;;;;5.50;2.45;;;;;;;27.66;35.63;100382.31;5052144;28;20056;-64
2023/06/28 11:54:46;;;;;;;3.08;2.13;;;;;;;27.68;34.99;100376.56;5052148;28;20482;-63
2023/06/28 11:57:12;;;;;;;4.28;2.55;;;;;;;27.79;36.45;100378.97;5052093;28;20036;-63
2023/06/28 11:59:44;;;;;;;2.97;2.15;;;;;;;27.65;35.20;100386.16;5051751;28;20443;-61
2023/06/28 12:02:10;;;;;;;4.65;2.67;;;;;;;27.58;35.35;100386.47;5052092;28;20037;-62
2023/06/28 12:04:37;;;;;;;5.38;2.25;;;;;;;27.81;35.24;100376.78;5052026;28;20051;-62
2023/06/28 12:07:06;;;;;;;3.42;2.30;;;;;;;27.74;35.15;100383.66;5052033;28;20142;-65
2023/06/28 12:09:34;;;;;;;3.13;2.17;;;;;;;27.58;35.29;100381.00;5051668;28;20111;-65
2023/06/28 12:12:05;;;;;;;2.45;1.90;;;;;;;26.86;37.15;100378.81;5051885;28;20520;-64
2023/06/28 12:14:38;;;;;;;3.20;2.15;;;;;;;26.82;36.63;100385.97;5051875;28;20087;-63
2023/06/28 12:17:04;;;;;;;3.05;2.42;;;;;;;26.65;38.11;100392.53;5051873;28;20040;-63
2023/06/28 12:19:35;;;;;;;4.68;2.58;;;;;;;26.75;38.85;100383.50;5051564;28;20390;-63
2023/06/28 12:22:05;;;;;;;5.22;3.00;;;;;;;26.53;38.76;100381.06;5051821;28;20055;-63
2023/06/28 12:24:34;;;;;;;7.80;3.60;;;;;;;26.25;38.55;100388.72;5054407;28;20489;-63
2023/06/28 12:27:02;;;;;;;4.32;2.75;;;;;;;26.20;38.05;100377.81;5060897;28;20032;-62
2023/06/28 12:29:31;;;;;;;;;;;;;;;26.02;39.94;100378.38;5060194;28;20404;-63
2023/06/28 12:32:08;;;;;;;5.05;2.70;;;;;;;25.97;39.48;100378.38;5051660;28;19920;-63
2023/06/28 12:34:37;;;;;;;4.60;3.10;;;;;;;25.87;40.88;100384.63;5051769;28;20041;-63
2023/06/28 12:37:10;;;;;;;3.72;2.95;;;;;;;26.12;40.41;100372.91;5051621;28;20037;-64
2023/06/28 12:39:38;;;;;;;5.28;2.85;;;;;;;26.61;38.75;100368.81;5051354;28;20072;-61
2023/06/28 12:42:04;;;;;;;5.07;3.20;;;;;;;26.64;39.74;100369.03;5051704;28;20021;-64
2023/06/28 12:44:30;;;;;;;6.50;3.20;;;;;;;26.47;38.02;100368.53;5055679;28;20363;-61
2023/06/28 12:46:56;;;;;;;5.40;3.10;;;;;;;26.25;38.77;100364.16;5060992;28;20094;-61
2023/06/28 12:49:22;;;;;;;4.55;2.80;;;;;;;26.19;39.48;100365.25;5048121;28;20120;-64
2023/06/28 12:51:48;;;;;;;5.40;2.75;;;;;;;26.17;39.68;100362.00;5064522;28;20127;-61
2023/06/28 12:54:14;;;;;;;4.20;2.70;;;;;;;26.04;40.54;100359.81;5066095;28;20045;-59
2023/06/28 12:56:42;;;;;;;3.50;2.50;;;;;;;26.07;40.73;100361.97;5064471;28;20028;-63
2023/06/28 12:59:08;;;;;;;4.10;2.70;;;;;;;26.12;40.48;100361.97;5064120;28;20036;-61
2023/06/28 13:01:33;;;;;;;6.07;2.38;;;;;;;26.14;39.54;100369.88;5064830;28;20036;-61
2023/06/28 13:03:59;;;;;;;4.53;2.88;;;;;;;26.17;39.64;100361.16;5066134;28;20032;-60
2023/06/28 13:06:25;;;;;;;4.95;2.58;;;;;;;26.34;40.74;100355.41;5065099;28;20064;-62
2023/06/28 13:08:52;;;;;;;5.15;2.80;;;;;;;26.37;40.44;100358.41;5063831;28;20056;-61
2023/06/28 13:11:18;;;;;;;4.60;2.53;;;;;;;26.43;38.99;100365.53;5064051;28;20048;-62
2023/06/28 13:13:43;;;;;;;3.95;2.70;;;;;;;26.52;39.12;100363.06;5065019;28;20123;-60
2023/06/28 13:16:09;;;;;;;7.72;2.65;;;;;;;26.67;39.38;100362.19;5064243;28;20163;-61
2023/06/28 13:18:34;;;;;;;5.00;2.40;;;;;;;26.56;38.34;100353.22;5063416;28;20229;-63
2023/06/28 13:21:00;;;;;;;4.30;2.42;;;;;;;26.62;40.14;100354.84;5064973;28;20029;-62
2023/06/28 13:23:26;;;;;;;5.45;2.33;;;;;;;26.53;38.83;100351.03;5064911;28;20043;-61
2023/06/28 13:25:53;;;;;;;3.67;2.13;;;;;;;26.50;39.87;100354.34;5063550;28;20127;-62
2023/06/28 13:28:18;;;;;;;;;;;;;;;26.43;38.96;100354.63;5049121;28;20087;-64
2023/06/28 13:30:44;;;;;;;3.07;2.27;;;;;;;26.37;39.31;100354.88;5064525;28;19912;-62
2023/06/28 13:33:10;;;;;;;5.00;3.15;;;;;;;26.36;40.50;100348.59;5064239;28;20033;-62
2023/06/28 13:35:35;;;;;;;5.60;2.40;;;;;;;26.38;40.10;100340.13;5046039;28;20546;-63
2023/06/28 13:38:00;;;;;;;5.78;2.70;;;;;;;26.68;42.05;100342.81;5061726;28;20044;-63
2023/06/28 13:40:26;;;;;;;3.50;2.42;;;;;;;26.92;40.48;100348.47;5060807;28;20067;-64
2023/06/28 13:42:51;;;;;;;7.90;2.70;;;;;;;27.10;39.36;100341.59;5062977;28;20087;-63
2023/06/28 13:45:17;;;;;;;5.55;2.45;;;;;;;27.08;41.27;100337.50;5063354;28;20091;-61
2023/06/28 13:47:42;;;;;;;5.53;2.45;;;;;;;27.18;39.00;100332.81;5065047;28;20039;-64
2023/06/28 13:50:08;;;;;;;3.70;2.28;;;;;;;26.97;38.71;100340.25;5059356;28;20045;-62
2023/06/28 13:52:33;;;;;;;4.25;2.50;;;;;;;26.82;37.25;100329.38;5067519;28;20033;-60
2023/06/28 13:54:58;;;;;;;4.70;2.17;;;;;;;26.69;37.18;100319.88;5073856;28;20052;-62
2023/06/28 13:57:24;;;;;;;3.40;2.30;;;;;;;26.68;38.92;100329.16;5074376;28;20109;-63
2023/06/28 13:59:49;;;;;;;3.60;2.28;;;;;;;26.56;39.84;100325.91;5074046;28;20040;-63
2023/06/28 14:02:16;;;;;;;4.03;2.15;;;;;;;26.53;39.80;100331.91;5063922;28;20397;-60
2023/06/28 14:04:42;;;;;;;5.07;2.45;;;;;;;26.38;40.31;100331.94;5054210;28;20041;-60
2023/06/28 14:07:08;;;;;;;3.60;2.40;;;;;;;26.35;40.78;100333.31;5054107;28;20033;-62
2023/06/28 14:09:34;;;;;;;6.50;2.72;;;;;;;26.38;41.29;100329.19;5053731;28;20665;-63
2023/06/28 14:11:59;;;;;;;3.13;2.38;;;;;;;26.32;39.64;100330.31;5053993;28;20152;-60
2023/06/28 14:14:25;;;;;;;5.20;2.65;;;;;;;26.36;40.28;100331.41;5054087;28;20405;-63
2023/06/28 14:16:50;;;;;;;5.45;2.08;;;;;;;26.39;40.64;100336.28;5053773;28;20037;-63
2023/06/28 14:19:16;;;;;;;2.92;2.08;;;;;;;26.45;39.99;100330.56;5053771;28;20514;-63
2023/06/28 14:21:41;;;;;;;6.32;2.30;;;;;;;26.42;39.64;100335.78;5053746;28;20078;-59
2023/06/28 14:24:08;;;;;;;4.22;2.42;;;;;;;26.40;38.99;100332.50;5053878;28;20037;-62
2023/06/28 14:26:33;;;;;;;5.20;2.63;;;;;;;26.66;38.81;100325.88;5053804;28;20116;-62
2023/06/28 14:29:00;;;;;;;5.00;2.35;;;;;;;26.82;39.70;100323.09;5053456;28;20060;-62
2023/06/28 14:31:25;;;;;;;4.30;2.10;;;;;;;27.01;39.02;100322.19;5053724;28;20146;-63
2023/06/28 14:33:51;;;;;;;4.18;2.28;;;;;;;27.02;40.03;100329.31;5053617;28;20557;-63
2023/06/28 14:36:16;;;;;;;2.78;2.00;;;;;;;26.79;38.07;100325.28;5053518;28;20039;-61
2023/06/28 14:38:42;;;;;;;6.88;2.40;;;;;;;26.60;38.79;100316.06;5053209;28;20547;-60
2023/06/28 14:41:08;;;;;;;3.63;2.78;;;;;;;26.85;39.24;100312.41;5053485;28;20036;-63
2023/06/28 14:43:34;;;;;;;4.95;3.17;;;;;;;26.91;39.08;100307.75;5053480;28;20048;-62
2023/06/28 14:46:00;;;;;;;3.75;2.30;;;;;;;26.63;38.26;100311.97;5053415;28;20472;-61
2023/06/28 14:48:25;;;;;;;3.17;2.33;;;;;;;26.52;38.38;100314.72;5051960;28;20043;-64
2023/06/28 14:50:56;;;;;;;2.75;2.30;;;;;;;25.88;39.11;100303.56;5053176;28;20126;-61
2023/06/28 14:53:21;;;;;;;3.42;2.50;;;;;;;25.92;39.85;100307.41;5053344;28;20128;-62
2023/06/28 14:55:47;;;;;;;5.28;2.30;;;;;;;25.98;40.03;100312.59;5053182;28;20076;-61
2023/06/28 14:58:12;;;;;;;3.97;2.30;;;;;;;26.28;40.04;100316.41;5053198;28;20040;-63
2023/06/28 15:00:37;;;;;;;4.07;2.90;;;;;;;26.38;39.72;100310.09;5052808;28;20490;-61
2023/06/28 15:03:04;;;;;;;4.28;2.00;;;;;;;26.28;38.67;100307.34;5051792;28;20052;-61
2023/06/28 15:05:29;;;;;;;4.53;3.07;;;;;;;26.34;40.23;100306.25;5052154;28;20041;-60
2023/06/28 15:07:54;;;;;;;5.82;2.72;;;;;;;26.20;38.26;100309.56;5052996;28;20143;-62
2023/06/28 15:10:20;;;;;;;3.22;2.30;;;;;;;26.21;39.66;100304.91;5052570;28;20054;-63
2023/06/28 15:12:45;;;;;;;3.63;2.10;;;;;;;26.17;38.88;100307.41;5051617;28;20041;-64
2023/06/28 15:15:11;;;;;;;3.88;2.50;;;;;;;26.14;39.28;100305.19;5052817;28;20040;-63
2023/06/28 15:17:36;;;;;;;3.50;2.35;;;;;;;26.15;39.31;100306.84;5052643;28;20045;-63
2023/06/28 15:20:02;;;;;;;3.58;2.45;;;;;;;26.05;41.08;100306.84;5052508;28;20155;-64
2023/06/28 15:22:28;;;;;;;3.80;2.45;;;;;;;26.05;40.16;100301.41;5052939;28;20048;-63
2023/06/28 15:24:53;;;;;;;2.75;2.05;;;;;;;26.09;39.79;100301.69;5051397;28;20064;-63
2023/06/28 15:27:19;;;;;;;2.58;2.00;;;;;;;26.16;39.20;100294.03;5052489;28;20116;-63
2023/06/28 15:29:45;;;;;;;4.97;2.80;;;;;;;26.16;38.73;100297.56;5052345;28;20045;-62
2023/06/28 15:32:10;;;;;;;3.53;2.53;;;;;;;26.28;39.22;100293.72;5052491;28;20037;-63
2023/06/28 15:34:35;;;;;;;35.17;19.23;;;;;;;26.35;38.80;100297.81;5052499;28;20041;-63
2023/06/28 15:37:01;;;;;;;4.22;2.70;;;;;;;26.46;39.31;100298.63;5052374;28;20456;-63
2023/06/28 15:39:26;;;;;;;5.72;3.05;;;;;;;26.70;39.50;100293.38;5052210;28;20476;-64
2023/06/28 15:41:52;;;;;;;2.88;2.13;;;;;;;26.58;39.13;100290.94;5052411;28;20040;-64
2023/06/28 15:44:17;;;;;;;2.97;2.10;;;;;;;26.54;39.98;100289.88;5051226;28;20486;-64
2023/06/28 15:46:43;;;;;;;3.17;2.00;;;;;;;26.50;39.01;100288.78;5052248;28;20128;-64